sensor_id;sensor_type;location;lat;lon;timestamp;temperature;humidity
66825;DHT22;53726;54.322;10.134;2023-09-19T00:00:48;22.30;83.70
66825;DHT22;53726;54.322;10.134;2023-09-19T00:03:14;22.30;83.70
66825;DHT22;53726;54.322;10.134;2023-09-19T00:05:40;22.30;83.70
66825;DHT22;53726;54.322;10.134;2023-09-19T00:08:11;22.30;83.60
66825;DHT22;53726;54.322;10.134;2023-09-19T00:10:39;22.30;83.60
66825;DHT22;53726;54.322;10.134;2023-09-19T00:13:15;22.30;83.60
66825;DHT22;53726;54.322;10.134;2023-09-19T00:15:48;22.30;83.60
66825;DHT22;53726;54.322;10.134;2023-09-19T00:18:26;22.30;83.60
66825;DHT22;53726;54.322;10.134;2023-09-19T00:21:01;22.30;83.50
66825;DHT22;53726;54.322;10.134;2023-09-19T00:23:30;22.30;83.50
66825;DHT22;53726;54.322;10.134;2023-09-19T00:26:00;22.30;83.50
66825;DHT22;53726;54.322;10.134;2023-09-19T00:28:27;22.30;83.40
66825;DHT22;53726;54.322;10.134;2023-09-19T00:30:53;22.30;83.40
66825;DHT22;53726;54.322;10.134;2023-09-19T00:33:22;22.30;83.50
66825;DHT22;53726;54.322;10.134;2023-09-19T00:35:50;22.30;83.40
66825;DHT22;53726;54.322;10.134;2023-09-19T00:38:24;22.30;83.30
66825;DHT22;53726;54.322;10.134;2023-09-19T00:40:52;22.20;83.30
66825;DHT22;53726;54.322;10.134;2023-09-19T00:43:27;22.30;83.30
66825;DHT22;53726;54.322;10.134;2023-09-19T00:45:56;22.30;83.20
66825;DHT22;53726;54.322;10.134;2023-09-19T00:48:24;22.30;84.20
66825;DHT22;53726;54.322;10.134;2023-09-19T00:50:54;22.30;83.30
66825;DHT22;53726;54.322;10.134;2023-09-19T00:53:24;22.30;83.20
66825;DHT22;53726;54.322;10.134;2023-09-19T00:55:51;22.20;83.10
66825;DHT22;53726;54.322;10.134;2023-09-19T00:58:20;22.20;83.20
66825;DHT22;53726;54.322;10.134;2023-09-19T01:00:48;22.30;83.20
66825;DHT22;53726;54.322;10.134;2023-09-19T01:03:16;22.30;83.20
66825;DHT22;53726;54.322;10.134;2023-09-19T01:05:43;22.30;83.30
66825;DHT22;53726;54.322;10.134;2023-09-19T01:08:11;22.30;83.50
66825;DHT22;53726;54.322;10.134;2023-09-19T01:10:44;22.30;83.30
66825;DHT22;53726;54.322;10.134;2023-09-19T01:13:29;22.30;83.10
66825;DHT22;53726;54.322;10.134;2023-09-19T01:30:32;22.20;83.20
66825;DHT22;53726;54.322;10.134;2023-09-19T01:32:59;22.30;83.30
66825;DHT22;53726;54.322;10.134;2023-09-19T01:35:27;22.20;83.20
66825;DHT22;53726;54.322;10.134;2023-09-19T01:37:54;22.20;83.20
66825;DHT22;53726;54.322;10.134;2023-09-19T01:40:24;22.20;83.20
66825;DHT22;53726;54.322;10.134;2023-09-19T01:54:26;22.20;83.50
66825;DHT22;53726;54.322;10.134;2023-09-19T01:57:37;22.20;83.50
66825;DHT22;53726;54.322;10.134;2023-09-19T02:00:10;22.20;83.40
66825;DHT22;53726;54.322;10.134;2023-09-19T02:02:44;22.20;83.50
66825;DHT22;53726;54.322;10.134;2023-09-19T02:05:10;22.20;83.50
66825;DHT22;53726;54.322;10.134;2023-09-19T02:07:40;22.20;84.70
66825;DHT22;53726;54.322;10.134;2023-09-19T02:10:10;22.20;83.60
66825;DHT22;53726;54.322;10.134;2023-09-19T02:12:39;22.20;83.30
66825;DHT22;53726;54.322;10.134;2023-09-19T02:15:05;22.20;83.20
66825;DHT22;53726;54.322;10.134;2023-09-19T02:17:34;22.20;83.20
66825;DHT22;53726;54.322;10.134;2023-09-19T02:20:02;22.20;83.00
66825;DHT22;53726;54.322;10.134;2023-09-19T02:22:38;22.20;83.10
66825;DHT22;53726;54.322;10.134;2023-09-19T02:25:06;22.20;83.10
66825;DHT22;53726;54.322;10.134;2023-09-19T02:27:34;22.20;83.30
66825;DHT22;53726;54.322;10.134;2023-09-19T02:30:01;22.20;83.20
66825;DHT22;53726;54.322;10.134;2023-09-19T02:32:30;22.20;83.20
66825;DHT22;53726;54.322;10.134;2023-09-19T02:35:03;22.20;83.20
66825;DHT22;53726;54.322;10.134;2023-09-19T02:37:38;22.20;83.20
66825;DHT22;53726;54.322;10.134;2023-09-19T02:40:06;22.20;83.00
66825;DHT22;53726;54.322;10.134;2023-09-19T02:42:48;22.20;83.10
66825;DHT22;53726;54.322;10.134;2023-09-19T02:45:20;22.20;83.00
66825;DHT22;53726;54.322;10.134;2023-09-19T02:47:54;22.20;83.20
66825;DHT22;53726;54.322;10.134;2023-09-19T02:50:23;22.20;83.10
66825;DHT22;53726;54.322;10.134;2023-09-19T02:52:51;22.20;83.00
66825;DHT22;53726;54.322;10.134;2023-09-19T02:55:18;22.20;82.90
66825;DHT22;53726;54.322;10.134;2023-09-19T02:57:52;22.20;82.80
66825;DHT22;53726;54.322;10.134;2023-09-19T03:00:28;22.20;82.90
66825;DHT22;53726;54.322;10.134;2023-09-19T03:03:04;22.20;82.90
66825;DHT22;53726;54.322;10.134;2023-09-19T03:05:32;22.20;82.80
66825;DHT22;53726;54.322;10.134;2023-09-19T03:08:01;22.20;82.90
66825;DHT22;53726;54.322;10.134;2023-09-19T03:10:28;22.20;82.90
66825;DHT22;53726;54.322;10.134;2023-09-19T03:12:54;22.20;82.90
66825;DHT22;53726;54.322;10.134;2023-09-19T03:15:21;22.20;82.90
66825;DHT22;53726;54.322;10.134;2023-09-19T03:17:48;22.20;82.80
66825;DHT22;53726;54.322;10.134;2023-09-19T03:20:15;22.20;82.90
66825;DHT22;53726;54.322;10.134;2023-09-19T03:22:53;22.20;83.10
66825;DHT22;53726;54.322;10.134;2023-09-19T03:25:20;22.20;82.90
66825;DHT22;53726;54.322;10.134;2023-09-19T03:27:48;22.20;82.90
66825;DHT22;53726;54.322;10.134;2023-09-19T03:30:16;22.20;82.80
66825;DHT22;53726;54.322;10.134;2023-09-19T03:32:54;22.20;82.80
66825;DHT22;53726;54.322;10.134;2023-09-19T03:35:22;22.20;82.70
66825;DHT22;53726;54.322;10.134;2023-09-19T03:37:49;22.20;82.70
66825;DHT22;53726;54.322;10.134;2023-09-19T03:40:18;22.20;82.80
66825;DHT22;53726;54.322;10.134;2023-09-19T03:42:47;22.20;82.70
66825;DHT22;53726;54.322;10.134;2023-09-19T03:45:14;22.20;82.70
66825;DHT22;53726;54.322;10.134;2023-09-19T03:47:44;22.20;82.70
66825;DHT22;53726;54.322;10.134;2023-09-19T03:50:12;22.20;82.60
66825;DHT22;53726;54.322;10.134;2023-09-19T03:52:55;22.20;82.60
66825;DHT22;53726;54.322;10.134;2023-09-19T03:55:23;22.10;82.50
66825;DHT22;53726;54.322;10.134;2023-09-19T03:57:57;22.20;82.60
66825;DHT22;53726;54.322;10.134;2023-09-19T04:00:27;22.20;82.50
66825;DHT22;53726;54.322;10.134;2023-09-19T04:02:55;22.20;82.40
66825;DHT22;53726;54.322;10.134;2023-09-19T04:05:23;22.20;82.30
66825;DHT22;53726;54.322;10.134;2023-09-19T04:07:51;22.20;82.30
66825;DHT22;53726;54.322;10.134;2023-09-19T04:10:18;22.20;82.10
66825;DHT22;53726;54.322;10.134;2023-09-19T04:12:55;22.20;82.20
66825;DHT22;53726;54.322;10.134;2023-09-19T04:15:24;22.20;82.20
66825;DHT22;53726;54.322;10.134;2023-09-19T04:17:58;22.10;82.50
66825;DHT22;53726;54.322;10.134;2023-09-19T04:20:26;22.10;82.50
66825;DHT22;53726;54.322;10.134;2023-09-19T04:22:52;22.20;82.50
66825;DHT22;53726;54.322;10.134;2023-09-19T04:25:19;22.20;82.50
66825;DHT22;53726;54.322;10.134;2023-09-19T04:27:45;22.20;82.60
66825;DHT22;53726;54.322;10.134;2023-09-19T04:30:12;22.10;82.60
66825;DHT22;53726;54.322;10.134;2023-09-19T04:32:41;22.10;82.70
66825;DHT22;53726;54.322;10.134;2023-09-19T04:35:08;22.10;82.80
66825;DHT22;53726;54.322;10.134;2023-09-19T04:37:40;22.20;82.90
66825;DHT22;53726;54.322;10.134;2023-09-19T04:40:10;22.10;83.10
66825;DHT22;53726;54.322;10.134;2023-09-19T04:42:45;22.10;83.10
66825;DHT22;53726;54.322;10.134;2023-09-19T04:45:11;22.10;83.20
66825;DHT22;53726;54.322;10.134;2023-09-19T04:47:45;22.10;83.20
66825;DHT22;53726;54.322;10.134;2023-09-19T04:50:21;21.80;76.50
66825;DHT22;53726;54.322;10.134;2023-09-19T04:52:51;21.30;76.70
66825;DHT22;53726;54.322;10.134;2023-09-19T04:55:20;20.90;78.00
66825;DHT22;53726;54.322;10.134;2023-09-19T04:57:50;20.70;77.10
66825;DHT22;53726;54.322;10.134;2023-09-19T05:00:17;20.60;78.90
66825;DHT22;53726;54.322;10.134;2023-09-19T05:02:45;20.50;78.00
66825;DHT22;53726;54.322;10.134;2023-09-19T05:05:14;20.40;79.50
66825;DHT22;53726;54.322;10.134;2023-09-19T05:07:46;20.40;79.00
66825;DHT22;53726;54.322;10.134;2023-09-19T05:10:12;20.40;78.50
66825;DHT22;53726;54.322;10.134;2023-09-19T05:12:40;20.30;78.40
66825;DHT22;53726;54.322;10.134;2023-09-19T05:15:07;20.30;78.60
66825;DHT22;53726;54.322;10.134;2023-09-19T05:17:34;20.20;78.80
66825;DHT22;53726;54.322;10.134;2023-09-19T05:20:00;20.20;78.40
66825;DHT22;53726;54.322;10.134;2023-09-19T05:22:31;20.20;77.90
66825;DHT22;53726;54.322;10.134;2023-09-19T05:25:04;20.20;77.80
66825;DHT22;53726;54.322;10.134;2023-09-19T05:27:32;20.20;77.80
66825;DHT22;53726;54.322;10.134;2023-09-19T05:30:05;20.10;78.30
66825;DHT22;53726;54.322;10.134;2023-09-19T05:32:32;20.10;77.20
66825;DHT22;53726;54.322;10.134;2023-09-19T05:34:59;20.10;78.10
66825;DHT22;53726;54.322;10.134;2023-09-19T05:37:27;20.30;80.00
66825;DHT22;53726;54.322;10.134;2023-09-19T05:39:56;20.70;81.60
66825;DHT22;53726;54.322;10.134;2023-09-19T05:42:23;20.90;81.60
66825;DHT22;53726;54.322;10.134;2023-09-19T05:44:50;21.10;81.00
66825;DHT22;53726;54.322;10.134;2023-09-19T05:47:18;21.20;80.70
66825;DHT22;53726;54.322;10.134;2023-09-19T05:49:46;21.30;80.80
66825;DHT22;53726;54.322;10.134;2023-09-19T05:52:15;21.40;77.20
66825;DHT22;53726;54.322;10.134;2023-09-19T05:54:45;21.00;77.20
66825;DHT22;53726;54.322;10.134;2023-09-19T05:57:12;21.10;79.20
66825;DHT22;53726;54.322;10.134;2023-09-19T05:59:41;21.20;79.40
66825;DHT22;53726;54.322;10.134;2023-09-19T06:02:08;21.30;79.50
66825;DHT22;53726;54.322;10.134;2023-09-19T06:04:35;21.40;79.40
66825;DHT22;53726;54.322;10.134;2023-09-19T06:07:01;21.50;79.40
66825;DHT22;53726;54.322;10.134;2023-09-19T06:09:31;21.40;79.10
66825;DHT22;53726;54.322;10.134;2023-09-19T06:11:57;21.50;79.10
66825;DHT22;53726;54.322;10.134;2023-09-19T06:14:23;21.50;79.10
66825;DHT22;53726;54.322;10.134;2023-09-19T06:16:50;21.50;79.10
66825;DHT22;53726;54.322;10.134;2023-09-19T06:19:15;21.60;79.10
66825;DHT22;53726;54.322;10.134;2023-09-19T06:21:41;21.60;79.00
66825;DHT22;53726;54.322;10.134;2023-09-19T06:24:07;21.60;79.00
66825;DHT22;53726;54.322;10.134;2023-09-19T06:26:33;21.60;79.00
66825;DHT22;53726;54.322;10.134;2023-09-19T06:28:59;21.60;79.00
66825;DHT22;53726;54.322;10.134;2023-09-19T06:31:25;21.60;78.90
66825;DHT22;53726;54.322;10.134;2023-09-19T06:33:52;21.60;79.00
66825;DHT22;53726;54.322;10.134;2023-09-19T06:36:17;21.70;79.00
66825;DHT22;53726;54.322;10.134;2023-09-19T06:38:44;21.70;79.00
66825;DHT22;53726;54.322;10.134;2023-09-19T06:41:10;21.70;78.90
66825;DHT22;53726;54.322;10.134;2023-09-19T06:43:36;21.70;78.90
66825;DHT22;53726;54.322;10.134;2023-09-19T06:46:02;21.70;78.90
66825;DHT22;53726;54.322;10.134;2023-09-19T06:48:28;21.70;78.90
66825;DHT22;53726;54.322;10.134;2023-09-19T06:50:55;21.70;78.90
66825;DHT22;53726;54.322;10.134;2023-09-19T06:53:21;21.70;78.90
66825;DHT22;53726;54.322;10.134;2023-09-19T06:55:50;21.70;78.90
66825;DHT22;53726;54.322;10.134;2023-09-19T06:58:15;21.70;78.90
66825;DHT22;53726;54.322;10.134;2023-09-19T07:00:42;21.70;78.90
66825;DHT22;53726;54.322;10.134;2023-09-19T07:03:08;21.70;78.90
66825;DHT22;53726;54.322;10.134;2023-09-19T07:05:37;21.80;78.80
66825;DHT22;53726;54.322;10.134;2023-09-19T07:08:05;21.80;78.90
66825;DHT22;53726;54.322;10.134;2023-09-19T07:10:36;21.70;78.80
66825;DHT22;53726;54.322;10.134;2023-09-19T07:13:07;21.70;78.80
66825;DHT22;53726;54.322;10.134;2023-09-19T07:15:37;21.80;78.90
66825;DHT22;53726;54.322;10.134;2023-09-19T07:18:05;21.70;78.80
66825;DHT22;53726;54.322;10.134;2023-09-19T07:20:32;21.80;78.90
66825;DHT22;53726;54.322;10.134;2023-09-19T07:23:01;21.70;78.80
66825;DHT22;53726;54.322;10.134;2023-09-19T07:25:30;21.80;78.90
66825;DHT22;53726;54.322;10.134;2023-09-19T07:27:57;21.70;78.90
66825;DHT22;53726;54.322;10.134;2023-09-19T07:30:25;21.80;78.90
66825;DHT22;53726;54.322;10.134;2023-09-19T07:32:51;21.80;79.00
66825;DHT22;53726;54.322;10.134;2023-09-19T07:35:18;21.70;78.80
66825;DHT22;53726;54.322;10.134;2023-09-19T07:37:48;21.80;79.00
66825;DHT22;53726;54.322;10.134;2023-09-19T07:40:17;21.80;78.90
66825;DHT22;53726;54.322;10.134;2023-09-19T07:42:43;21.80;78.90
66825;DHT22;53726;54.322;10.134;2023-09-19T07:45:10;21.80;79.00
66825;DHT22;53726;54.322;10.134;2023-09-19T07:47:43;21.80;78.90
66825;DHT22;53726;54.322;10.134;2023-09-19T07:50:09;21.80;78.90
66825;DHT22;53726;54.322;10.134;2023-09-19T07:52:35;21.80;79.00
66825;DHT22;53726;54.322;10.134;2023-09-19T07:55:00;21.80;78.90
66825;DHT22;53726;54.322;10.134;2023-09-19T07:57:31;21.80;79.00
66825;DHT22;53726;54.322;10.134;2023-09-19T08:00:00;21.80;79.00
66825;DHT22;53726;54.322;10.134;2023-09-19T08:02:25;21.80;79.00
66825;DHT22;53726;54.322;10.134;2023-09-19T08:04:51;21.80;79.00
66825;DHT22;53726;54.322;10.134;2023-09-19T08:07:17;21.80;79.00
66825;DHT22;53726;54.322;10.134;2023-09-19T08:09:43;21.80;79.00
66825;DHT22;53726;54.322;10.134;2023-09-19T08:12:14;21.80;79.00
66825;DHT22;53726;54.322;10.134;2023-09-19T08:14:40;21.80;79.00
66825;DHT22;53726;54.322;10.134;2023-09-19T08:17:09;21.80;79.00
66825;DHT22;53726;54.322;10.134;2023-09-19T08:19:34;21.80;79.00
66825;DHT22;53726;54.322;10.134;2023-09-19T08:22:02;21.80;79.00
66825;DHT22;53726;54.322;10.134;2023-09-19T08:24:29;21.80;79.00
66825;DHT22;53726;54.322;10.134;2023-09-19T08:26:56;21.80;79.00
66825;DHT22;53726;54.322;10.134;2023-09-19T08:29:22;21.80;79.00
66825;DHT22;53726;54.322;10.134;2023-09-19T08:31:56;21.80;79.00
66825;DHT22;53726;54.322;10.134;2023-09-19T08:34:23;21.80;79.00
66825;DHT22;53726;54.322;10.134;2023-09-19T08:36:53;21.80;79.00
66825;DHT22;53726;54.322;10.134;2023-09-19T08:39:23;21.80;79.00
66825;DHT22;53726;54.322;10.134;2023-09-19T08:41:49;21.80;79.00
66825;DHT22;53726;54.322;10.134;2023-09-19T08:44:15;21.80;79.00
66825;DHT22;53726;54.322;10.134;2023-09-19T08:46:42;21.80;79.00
66825;DHT22;53726;54.322;10.134;2023-09-19T08:49:19;21.80;79.00
66825;DHT22;53726;54.322;10.134;2023-09-19T08:51:58;21.80;79.00
66825;DHT22;53726;54.322;10.134;2023-09-19T08:54:29;21.80;78.90
66825;DHT22;53726;54.322;10.134;2023-09-19T08:57:01;21.80;79.00
66825;DHT22;53726;54.322;10.134;2023-09-19T08:59:33;21.80;78.90
66825;DHT22;53726;54.322;10.134;2023-09-19T09:02:00;21.80;79.00
66825;DHT22;53726;54.322;10.134;2023-09-19T09:04:27;21.80;79.00
66825;DHT22;53726;54.322;10.134;2023-09-19T09:06:53;21.80;79.00
66825;DHT22;53726;54.322;10.134;2023-09-19T09:09:20;21.80;78.90
66825;DHT22;53726;54.322;10.134;2023-09-19T09:11:48;21.80;78.90
66825;DHT22;53726;54.322;10.134;2023-09-19T09:14:16;21.80;78.90
66825;DHT22;53726;54.322;10.134;2023-09-19T09:16:42;21.80;79.00
66825;DHT22;53726;54.322;10.134;2023-09-19T09:19:08;21.80;79.00
66825;DHT22;53726;54.322;10.134;2023-09-19T09:21:34;21.80;79.00
66825;DHT22;53726;54.322;10.134;2023-09-19T09:24:26;21.80;79.00
66825;DHT22;53726;54.322;10.134;2023-09-19T09:26:51;21.80;79.00
66825;DHT22;53726;54.322;10.134;2023-09-19T09:29:45;21.80;79.00
66825;DHT22;53726;54.322;10.134;2023-09-19T09:32:30;21.80;79.00
66825;DHT22;53726;54.322;10.134;2023-09-19T09:35:00;21.80;79.00
66825;DHT22;53726;54.322;10.134;2023-09-19T09:37:27;21.80;79.00
66825;DHT22;53726;54.322;10.134;2023-09-19T09:40:02;21.80;78.90
66825;DHT22;53726;54.322;10.134;2023-09-19T09:42:40;21.80;78.80
66825;DHT22;53726;54.322;10.134;2023-09-19T09:45:20;21.80;78.80
66825;DHT22;53726;54.322;10.134;2023-09-19T09:48:01;21.90;78.90
66825;DHT22;53726;54.322;10.134;2023-09-19T09:50:46;21.90;78.80
66825;DHT22;53726;54.322;10.134;2023-09-19T09:53:25;21.90;78.80
66825;DHT22;53726;54.322;10.134;2023-09-19T09:58:27;21.90;78.80
66825;DHT22;53726;54.322;10.134;2023-09-19T10:00:58;21.90;78.80
66825;DHT22;53726;54.322;10.134;2023-09-19T10:03:38;21.90;78.80
66825;DHT22;53726;54.322;10.134;2023-09-19T10:06:10;21.90;78.80
66825;DHT22;53726;54.322;10.134;2023-09-19T10:11:31;21.90;78.80
66825;DHT22;53726;54.322;10.134;2023-09-19T10:13:59;21.90;78.80
66825;DHT22;53726;54.322;10.134;2023-09-19T10:16:30;21.90;78.80
66825;DHT22;53726;54.322;10.134;2023-09-19T10:19:02;21.90;78.80
66825;DHT22;53726;54.322;10.134;2023-09-19T10:21:31;21.90;78.80
66825;DHT22;53726;54.322;10.134;2023-09-19T10:24:00;21.90;78.80
66825;DHT22;53726;54.322;10.134;2023-09-19T10:26:30;21.90;78.80
66825;DHT22;53726;54.322;10.134;2023-09-19T10:28:57;21.90;78.80
66825;DHT22;53726;54.322;10.134;2023-09-19T10:31:27;21.90;78.70
66825;DHT22;53726;54.322;10.134;2023-09-19T10:33:55;21.90;78.80
66825;DHT22;53726;54.322;10.134;2023-09-19T10:36:24;21.90;78.70
66825;DHT22;53726;54.322;10.134;2023-09-19T10:38:52;21.90;78.70
66825;DHT22;53726;54.322;10.134;2023-09-19T10:41:22;21.90;78.70
66825;DHT22;53726;54.322;10.134;2023-09-19T10:43:48;21.90;78.70
66825;DHT22;53726;54.322;10.134;2023-09-19T10:46:16;21.90;78.70
66825;DHT22;53726;54.322;10.134;2023-09-19T10:48:42;21.90;78.70
66825;DHT22;53726;54.322;10.134;2023-09-19T10:51:21;21.90;78.70
66825;DHT22;53726;54.322;10.134;2023-09-19T10:53:50;21.90;78.80
66825;DHT22;53726;54.322;10.134;2023-09-19T10:56:32;21.90;78.70
66825;DHT22;53726;54.322;10.134;2023-09-19T11:07:07;21.90;78.70
66825;DHT22;53726;54.322;10.134;2023-09-19T11:12:57;21.90;78.60
66825;DHT22;53726;54.322;10.134;2023-09-19T11:15:02;21.90;78.60
66825;DHT22;53726;54.322;10.134;2023-09-19T11:17:34;21.90;78.70
66825;DHT22;53726;54.322;10.134;2023-09-19T11:30:35;21.90;78.70
66825;DHT22;53726;54.322;10.134;2023-09-19T11:33:27;21.90;78.70
66825;DHT22;53726;54.322;10.134;2023-09-19T11:36:08;21.90;78.70
66825;DHT22;53726;54.322;10.134;2023-09-19T11:44:33;21.90;78.80
66825;DHT22;53726;54.322;10.134;2023-09-19T11:49:31;21.90;78.80
66825;DHT22;53726;54.322;10.134;2023-09-19T11:51:59;21.90;78.80
66825;DHT22;53726;54.322;10.134;2023-09-19T11:54:33;21.90;78.80
66825;DHT22;53726;54.322;10.134;2023-09-19T11:57:02;21.90;78.80
66825;DHT22;53726;54.322;10.134;2023-09-19T11:59:29;21.90;79.80
66825;DHT22;53726;54.322;10.134;2023-09-19T12:01:58;21.90;78.80
66825;DHT22;53726;54.322;10.134;2023-09-19T12:04:38;21.90;78.80
66825;DHT22;53726;54.322;10.134;2023-09-19T12:07:22;21.90;78.80
66825;DHT22;53726;54.322;10.134;2023-09-19T12:09:49;21.90;78.80
66825;DHT22;53726;54.322;10.134;2023-09-19T12:12:26;21.90;78.80
66825;DHT22;53726;54.322;10.134;2023-09-19T12:15:01;21.90;78.70
66825;DHT22;53726;54.322;10.134;2023-09-19T12:17:39;21.90;78.80
66825;DHT22;53726;54.322;10.134;2023-09-19T12:20:07;21.90;78.80
66825;DHT22;53726;54.322;10.134;2023-09-19T12:22:43;21.90;78.80
66825;DHT22;53726;54.322;10.134;2023-09-19T12:25:10;21.90;78.80
66825;DHT22;53726;54.322;10.134;2023-09-19T12:27:44;21.90;78.80
66825;DHT22;53726;54.322;10.134;2023-09-19T12:30:12;21.90;78.80
66825;DHT22;53726;54.322;10.134;2023-09-19T12:32:43;21.90;78.80
66825;DHT22;53726;54.322;10.134;2023-09-19T12:35:09;21.90;78.80
66825;DHT22;53726;54.322;10.134;2023-09-19T12:37:52;21.90;78.90
66825;DHT22;53726;54.322;10.134;2023-09-19T12:40:21;21.90;78.90
66825;DHT22;53726;54.322;10.134;2023-09-19T12:42:48;21.90;78.90
66825;DHT22;53726;54.322;10.134;2023-09-19T12:45:15;21.90;78.90
66825;DHT22;53726;54.322;10.134;2023-09-19T12:48:17;21.90;78.90
66825;DHT22;53726;54.322;10.134;2023-09-19T12:51:10;21.90;79.00
66825;DHT22;53726;54.322;10.134;2023-09-19T12:53:39;21.90;78.90
66825;DHT22;53726;54.322;10.134;2023-09-19T12:56:10;21.90;78.90
66825;DHT22;53726;54.322;10.134;2023-09-19T12:58:51;21.90;79.00
66825;DHT22;53726;54.322;10.134;2023-09-19T13:01:19;21.90;78.90
66825;DHT22;53726;54.322;10.134;2023-09-19T13:04:09;21.90;78.90
66825;DHT22;53726;54.322;10.134;2023-09-19T13:06:36;21.90;79.00
66825;DHT22;53726;54.322;10.134;2023-09-19T13:09:11;21.90;78.90
66825;DHT22;53726;54.322;10.134;2023-09-19T13:11:38;21.80;78.90
66825;DHT22;53726;54.322;10.134;2023-09-19T13:14:24;21.90;78.90
66825;DHT22;53726;54.322;10.134;2023-09-19T13:17:04;21.90;78.90
66825;DHT22;53726;54.322;10.134;2023-09-19T13:19:39;21.90;78.90
66825;DHT22;53726;54.322;10.134;2023-09-19T13:25:13;21.90;78.90
66825;DHT22;53726;54.322;10.134;2023-09-19T13:27:42;21.90;79.00
66825;DHT22;53726;54.322;10.134;2023-09-19T13:30:08;21.80;78.90
66825;DHT22;53726;54.322;10.134;2023-09-19T13:32:34;21.90;79.00
66825;DHT22;53726;54.322;10.134;2023-09-19T13:35:00;21.90;80.00
66825;DHT22;53726;54.322;10.134;2023-09-19T13:37:25;21.90;78.90
66825;DHT22;53726;54.322;10.134;2023-09-19T13:39:52;21.80;78.90
66825;DHT22;53726;54.322;10.134;2023-09-19T13:42:19;21.90;78.90
66825;DHT22;53726;54.322;10.134;2023-09-19T13:44:47;21.90;78.90
66825;DHT22;53726;54.322;10.134;2023-09-19T13:47:13;21.90;78.80
66825;DHT22;53726;54.322;10.134;2023-09-19T13:49:40;21.90;78.90
66825;DHT22;53726;54.322;10.134;2023-09-19T13:52:06;21.90;78.80
66825;DHT22;53726;54.322;10.134;2023-09-19T13:54:32;21.90;78.80
66825;DHT22;53726;54.322;10.134;2023-09-19T13:56:58;21.90;78.80
66825;DHT22;53726;54.322;10.134;2023-09-19T13:59:24;21.90;78.80
66825;DHT22;53726;54.322;10.134;2023-09-19T14:01:50;21.90;78.80
66825;DHT22;53726;54.322;10.134;2023-09-19T14:04:19;21.90;78.70
66825;DHT22;53726;54.322;10.134;2023-09-19T14:06:46;21.90;78.80
66825;DHT22;53726;54.322;10.134;2023-09-19T14:09:12;21.90;78.80
66825;DHT22;53726;54.322;10.134;2023-09-19T14:11:39;21.80;78.70
66825;DHT22;53726;54.322;10.134;2023-09-19T14:14:05;21.80;78.80
66825;DHT22;53726;54.322;10.134;2023-09-19T14:16:31;21.80;78.80
66825;DHT22;53726;54.322;10.134;2023-09-19T14:18:57;21.80;78.80
66825;DHT22;53726;54.322;10.134;2023-09-19T14:21:26;21.80;78.80
66825;DHT22;53726;54.322;10.134;2023-09-19T14:23:52;21.80;78.80
66825;DHT22;53726;54.322;10.134;2023-09-19T14:26:22;21.80;78.70
66825;DHT22;53726;54.322;10.134;2023-09-19T14:28:48;21.80;78.70
66825;DHT22;53726;54.322;10.134;2023-09-19T14:31:14;21.80;78.80
66825;DHT22;53726;54.322;10.134;2023-09-19T14:33:40;21.80;78.80
66825;DHT22;53726;54.322;10.134;2023-09-19T14:36:08;21.80;78.80
66825;DHT22;53726;54.322;10.134;2023-09-19T14:38:37;21.80;78.50
66825;DHT22;53726;54.322;10.134;2023-09-19T14:41:06;21.80;78.60
66825;DHT22;53726;54.322;10.134;2023-09-19T14:43:32;21.80;78.60
66825;DHT22;53726;54.322;10.134;2023-09-19T14:46:07;21.80;78.60
66825;DHT22;53726;54.322;10.134;2023-09-19T14:48:34;21.80;78.60
66825;DHT22;53726;54.322;10.134;2023-09-19T14:51:06;21.80;78.70
66825;DHT22;53726;54.322;10.134;2023-09-19T14:53:34;21.80;78.70
66825;DHT22;53726;54.322;10.134;2023-09-19T14:56:02;21.70;78.80
66825;DHT22;53726;54.322;10.134;2023-09-19T14:58:31;21.70;78.80
66825;DHT22;53726;54.322;10.134;2023-09-19T15:01:04;21.70;78.90
66825;DHT22;53726;54.322;10.134;2023-09-19T15:03:32;21.70;78.90
66825;DHT22;53726;54.322;10.134;2023-09-19T15:06:02;21.70;78.90
66825;DHT22;53726;54.322;10.134;2023-09-19T15:08:33;21.70;79.00
66825;DHT22;53726;54.322;10.134;2023-09-19T15:11:18;21.70;79.00
66825;DHT22;53726;54.322;10.134;2023-09-19T15:13:46;21.70;79.10
66825;DHT22;53726;54.322;10.134;2023-09-19T15:16:13;21.70;79.00
66825;DHT22;53726;54.322;10.134;2023-09-19T15:18:41;21.70;79.10
66825;DHT22;53726;54.322;10.134;2023-09-19T15:21:09;21.70;79.10
66825;DHT22;53726;54.322;10.134;2023-09-19T15:23:36;21.70;79.10
66825;DHT22;53726;54.322;10.134;2023-09-19T15:26:15;21.70;79.10
66825;DHT22;53726;54.322;10.134;2023-09-19T15:28:45;21.70;79.10
66825;DHT22;53726;54.322;10.134;2023-09-19T15:31:12;21.70;79.20
66825;DHT22;53726;54.322;10.134;2023-09-19T15:33:39;21.70;79.20
66825;DHT22;53726;54.322;10.134;2023-09-19T15:38:32;21.70;79.20
66825;DHT22;53726;54.322;10.134;2023-09-19T15:41:20;21.70;79.20
66825;DHT22;53726;54.322;10.134;2023-09-19T15:43:46;21.70;79.20
66825;DHT22;53726;54.322;10.134;2023-09-19T15:46:12;21.70;79.20
66825;DHT22;53726;54.322;10.134;2023-09-19T15:48:39;21.70;79.30
66825;DHT22;53726;54.322;10.134;2023-09-19T15:51:05;21.70;79.30
66825;DHT22;53726;54.322;10.134;2023-09-19T15:53:43;21.70;79.30
66825;DHT22;53726;54.322;10.134;2023-09-19T15:56:10;21.70;79.30
66825;DHT22;53726;54.322;10.134;2023-09-19T15:58:40;21.70;79.30
66825;DHT22;53726;54.322;10.134;2023-09-19T16:01:06;21.60;79.30
66825;DHT22;53726;54.322;10.134;2023-09-19T16:03:39;21.60;79.30
66825;DHT22;53726;54.322;10.134;2023-09-19T16:06:10;21.60;79.30
66825;DHT22;53726;54.322;10.134;2023-09-19T16:08:42;21.70;79.40
66825;DHT22;53726;54.322;10.134;2023-09-19T16:11:09;21.60;79.40
66825;DHT22;53726;54.322;10.134;2023-09-19T16:13:36;21.60;79.40
66825;DHT22;53726;54.322;10.134;2023-09-19T16:16:02;21.60;79.40
66825;DHT22;53726;54.322;10.134;2023-09-19T16:18:27;21.60;79.40
66825;DHT22;53726;54.322;10.134;2023-09-19T16:20:53;21.60;79.50
66825;DHT22;53726;54.322;10.134;2023-09-19T16:23:19;21.60;79.50
66825;DHT22;53726;54.322;10.134;2023-09-19T16:25:46;21.60;79.50
66825;DHT22;53726;54.322;10.134;2023-09-19T16:28:12;21.60;79.50
66825;DHT22;53726;54.322;10.134;2023-09-19T16:30:38;21.60;79.50
66825;DHT22;53726;54.322;10.134;2023-09-19T16:33:05;21.60;79.50
66825;DHT22;53726;54.322;10.134;2023-09-19T16:35:31;21.60;79.50
66825;DHT22;53726;54.322;10.134;2023-09-19T16:38:01;21.60;79.60